Time;durP1;ratioP1;P1;durP2;ratioP2;P2;SDS_P1;SDS_P2;PMS_P1;PMS_P2;Temp;Humidity;BMP_temperature;BMP_pressure;BME280_temperature;BME280_humidity;BME280_pressure;Samples;Min_cycle;Max_cycle;Signal;HPM_P1;HPM_P2
2023/04/19 00:00:07;;;;;;;17.90;16.80;;;13.20;30.80;;;;;;5002946;28;20680;-57
2023/04/19 00:02:33;;;;;;;16.90;16.00;;;13.00;31.30;;;;;;5000872;28;20745;-57
2023/04/19 00:04:59;;;;;;;18.07;16.97;;;13.00;31.50;;;;;;5003601;28;20773;-58
2023/04/19 00:07:26;;;;;;;16.90;15.97;;;13.10;31.10;;;;;;5002863;28;20435;-58
2023/04/19 00:09:51;;;;;;;16.57;15.53;;;13.10;30.70;;;;;;5001513;28;20220;-58
2023/04/19 00:12:17;;;;;;;17.30;16.27;;;13.00;31.10;;;;;;5002616;28;20760;-58
2023/04/19 00:14:43;;;;;;;17.50;16.40;;;13.00;31.50;;;;;;5002316;28;20447;-58
2023/04/19 00:17:10;;;;;;;17.93;16.80;;;12.90;31.40;;;;;;5002543;28;20178;-61
2023/04/19 00:19:36;;;;;;;19.87;18.60;;;12.90;32.30;;;;;;5002386;28;20185;-62
2023/04/19 00:22:02;;;;;;;17.80;16.80;;;12.90;31.50;;;;;;5003011;28;20494;-62
2023/04/19 00:24:27;;;;;;;18.87;17.87;;;12.90;31.60;;;;;;5003096;28;20858;-62
2023/04/19 00:26:53;;;;;;;17.87;16.77;;;12.90;31.40;;;;;;5002895;28;20193;-61
2023/04/19 00:29:19;;;;;;;18.57;17.57;;;13.00;31.40;;;;;;5002408;28;20669;-62
2023/04/19 00:31:44;;;;;;;18.20;17.00;;;13.00;31.90;;;;;;5002170;28;20261;-62
2023/04/19 00:34:10;;;;;;;18.60;17.50;;;13.00;31.40;;;;;;5005008;28;20189;-62
2023/04/19 00:36:36;;;;;;;19.57;18.40;;;13.00;31.10;;;;;;5005565;28;20188;-58
2023/04/19 00:39:02;;;;;;;19.30;18.17;;;12.90;31.50;;;;;;5005941;28;20185;-58
2023/04/19 00:41:28;;;;;;;19.63;18.33;;;12.90;31.80;;;;;;5003814;28;20478;-57
2023/04/19 00:43:54;;;;;;;18.97;17.70;;;12.90;32.10;;;;;;5004341;28;20431;-58
2023/04/19 00:46:20;;;;;;;19.37;18.27;;;12.90;31.70;;;;;;5003801;28;20187;-58
2023/04/19 00:48:47;;;;;;;19.83;18.63;;;13.00;31.70;;;;;;5004066;28;20201;-61
2023/04/19 00:51:13;;;;;;;19.47;18.23;;;13.00;31.60;;;;;;5004400;28;20482;-62
2023/04/19 00:53:40;;;;;;;18.63;17.50;;;13.00;31.90;;;;;;5004319;28;20917;-62
2023/04/19 00:56:06;;;;;;;20.50;19.10;;;13.00;31.20;;;;;;5004333;28;20312;-62
2023/04/19 00:58:32;;;;;;;20.23;19.03;;;12.90;31.40;;;;;;5004983;28;20778;-62
2023/04/19 01:00:58;;;;;;;18.97;17.80;;;12.80;32.20;;;;;;5003483;28;20520;-65
2023/04/19 01:03:26;;;;;;;20.67;19.47;;;12.90;32.20;;;;;;5005566;28;20805;-62
2023/04/19 01:05:52;;;;;;;19.10;18.00;;;12.90;31.60;;;;;;5005486;28;20432;-62
2023/04/19 01:08:17;;;;;;;20.13;18.93;;;12.80;31.90;;;;;;5004628;28;20807;-62
2023/04/19 01:10:43;;;;;;;20.60;19.30;;;12.90;31.80;;;;;;5004154;28;20424;-62
2023/04/19 01:13:08;;;;;;;18.50;17.40;;;13.00;31.50;;;;;;5003604;28;20181;-62
2023/04/19 01:15:35;;;;;;;20.80;19.30;;;13.00;32.20;;;;;;5004197;28;20662;-62
2023/04/19 01:18:01;;;;;;;20.53;19.33;;;13.00;31.20;;;;;;5003278;28;20228;-61
2023/04/19 01:20:27;;;;;;;19.27;17.97;;;13.00;31.20;;;;;;4989075;28;20469;-61
2023/04/19 01:22:52;;;;;;;20.60;19.33;;;13.00;31.10;;;;;;4984284;28;20532;-58
2023/04/19 01:25:18;;;;;;;18.63;17.23;;;13.00;31.10;;;;;;5001793;28;20197;-58
2023/04/19 01:27:44;;;;;;;20.70;19.40;;;12.90;31.60;;;;;;4999769;28;20213;-56
2023/04/19 01:30:10;;;;;;;20.03;18.73;;;12.90;31.50;;;;;;4981721;28;20685;-58
2023/04/19 01:32:36;;;;;;;21.50;20.10;;;12.90;31.50;;;;;;4982478;28;20210;-61
2023/04/19 01:35:26;;;;;;;20.50;19.30;;;12.90;31.20;;;;;;4982876;28;20838;-57
2023/04/19 01:37:54;;;;;;;20.50;19.30;;;12.80;32.10;;;;;;4983093;28;20252;-57
2023/04/19 01:40:22;;;;;;;21.30;19.90;;;12.60;32.50;;;;;;4982910;28;20424;-58
2023/04/19 01:42:47;;;;;;;20.50;19.10;;;12.60;32.80;;;;;;4981768;28;20459;-58
2023/04/19 01:45:13;;;;;;;20.40;19.20;;;12.60;32.80;;;;;;4996652;28;20421;-58
2023/04/19 01:47:39;;;;;;;20.37;19.07;;;12.70;32.40;;;;;;4981830;28;20186;-58
2023/04/19 01:50:06;;;;;;;19.90;18.60;;;12.80;32.20;;;;;;4983070;28;20210;-57
2023/04/19 01:52:31;;;;;;;18.97;17.73;;;12.80;31.90;;;;;;4982361;28;20512;-58
2023/04/19 01:54:57;;;;;;;21.23;19.90;;;12.80;32.00;;;;;;4998081;28;20517;-58
2023/04/19 01:57:22;;;;;;;22.10;20.43;;;12.80;31.80;;;;;;4981834;28;20194;-57
2023/04/19 01:59:49;;;;;;;22.87;21.40;;;12.80;32.20;;;;;;4981725;28;20193;-57
2023/04/19 02:02:15;;;;;;;19.93;18.60;;;12.80;32.00;;;;;;4978709;28;20185;-57
2023/04/19 02:04:40;;;;;;;21.00;19.50;;;12.80;31.70;;;;;;4997725;28;20441;-61
2023/04/19 02:07:06;;;;;;;20.70;19.40;;;12.90;31.80;;;;;;4988250;28;20201;-61
2023/04/19 02:09:36;;;;;;;21.37;19.97;;;12.80;31.50;;;;;;4991524;28;20256;-61
2023/04/19 02:12:03;;;;;;;21.50;20.10;;;12.90;31.70;;;;;;4989206;28;20508;-61
2023/04/19 02:14:29;;;;;;;19.23;18.00;;;12.80;31.60;;;;;;4990016;28;20421;-61
2023/04/19 02:16:55;;;;;;;22.43;20.93;;;12.70;32.20;;;;;;4989329;28;20793;-61
2023/04/19 02:19:20;;;;;;;21.40;20.00;;;12.70;32.30;;;;;;4990018;28;20213;-61
2023/04/19 02:21:46;;;;;;;21.27;19.77;;;12.70;32.10;;;;;;4989759;28;20177;-62
2023/04/19 02:24:12;;;;;;;21.03;19.73;;;12.70;32.50;;;;;;4990236;28;20690;-61
2023/04/19 02:26:39;;;;;;;21.03;19.63;;;12.70;32.10;;;;;;4989586;28;20190;-62
2023/04/19 02:29:05;;;;;;;19.90;18.70;;;12.80;31.80;;;;;;4989251;28;20213;-63
2023/04/19 02:31:30;;;;;;;21.67;20.07;;;12.70;32.10;;;;;;4989560;28;20505;-62
2023/04/19 02:33:56;;;;;;;19.33;18.13;;;12.70;32.00;;;;;;4989022;28;20504;-62
2023/04/19 02:36:22;;;;;;;21.77;20.27;;;12.80;32.10;;;;;;4989968;28;20182;-62
2023/04/19 02:38:47;;;;;;;19.83;18.53;;;12.80;31.70;;;;;;4989527;28;20595;-62
2023/04/19 02:41:13;;;;;;;22.07;20.47;;;12.80;32.60;;;;;;4988931;28;20273;-62
2023/04/19 02:43:39;;;;;;;21.67;20.17;;;12.70;32.30;;;;;;4990556;28;20272;-62
2023/04/19 02:46:05;;;;;;;21.93;20.50;;;12.70;32.20;;;;;;4986559;28;20198;-62
2023/04/19 02:48:30;;;;;;;21.80;20.50;;;12.80;32.00;;;;;;4980912;28;20181;-62
2023/04/19 02:50:56;;;;;;;22.20;20.80;;;12.70;32.00;;;;;;4981837;28;20520;-63
2023/04/19 02:53:22;;;;;;;21.53;20.03;;;12.70;31.90;;;;;;5000739;28;20181;-62
2023/04/19 02:55:48;;;;;;;21.87;20.27;;;12.60;31.80;;;;;;5000124;28;20173;-62
2023/04/19 02:58:13;;;;;;;21.57;20.17;;;12.60;32.70;;;;;;4999520;28;20183;-62
2023/04/19 03:00:39;;;;;;;22.00;20.30;;;12.60;32.60;;;;;;5002418;28;20185;-62
2023/04/19 03:03:06;;;;;;;21.47;20.07;;;12.60;32.80;;;;;;5002789;28;20724;-60
2023/04/19 03:05:31;;;;;;;20.80;19.50;;;12.60;32.70;;;;;;4998817;28;20205;-58
2023/04/19 03:07:57;;;;;;;21.03;19.60;;;12.60;32.50;;;;;;4999605;28;20455;-63
2023/04/19 03:10:23;;;;;;;22.83;21.17;;;12.50;32.80;;;;;;5001049;28;20689;-62
2023/04/19 03:12:49;;;;;;;23.50;21.90;;;12.40;32.90;;;;;;5001537;28;20205;-62
2023/04/19 03:15:14;;;;;;;21.60;20.30;;;12.40;33.30;;;;;;4998877;28;20663;-62
2023/04/19 03:17:40;;;;;;;21.20;19.67;;;12.40;33.50;;;;;;5000517;28;20212;-61
2023/04/19 03:20:13;;;;;;;22.53;21.20;;;12.40;33.20;;;;;;5000526;28;20288;-61
2023/04/19 03:22:38;;;;;;;21.93;20.53;;;12.50;33.20;;;;;;4999517;28;20193;-62
2023/04/19 03:25:05;;;;;;;22.27;20.87;;;12.50;33.00;;;;;;5000281;28;20555;-62
2023/04/19 03:27:34;;;;;;;24.00;22.40;;;12.60;33.00;;;;;;4998649;28;20631;-58
2023/04/19 03:29:59;;;;;;;22.40;21.00;;;12.60;32.70;;;;;;5000890;28;20477;-58
2023/04/19 03:32:25;;;;;;;23.13;21.57;;;12.60;32.60;;;;;;5000459;28;20436;-58
2023/04/19 03:34:50;;;;;;;23.00;21.30;;;12.70;32.30;;;;;;5000410;28;20265;-58
2023/04/19 03:37:16;;;;;;;22.10;20.70;;;12.70;32.10;;;;;;5001287;28;20184;-58
2023/04/19 03:39:42;;;;;;;23.80;22.30;;;12.70;32.10;;;;;;5002770;28;20208;-58
2023/04/19 03:42:07;;;;;;;23.20;21.57;;;12.80;32.20;;;;;;5004786;28;20181;-62
2023/04/19 03:44:33;;;;;;;22.13;20.77;;;12.80;31.90;;;;;;5004136;28;20552;-61
2023/04/19 03:46:59;;;;;;;22.83;21.30;;;12.80;31.80;;;;;;5006045;28;20550;-62
2023/04/19 03:49:25;;;;;;;22.40;21.00;;;12.80;32.40;;;;;;5006019;28;20345;-58
2023/04/19 03:51:50;;;;;;;22.83;21.33;;;12.80;32.10;;;;;;5002710;28;20189;-58
2023/04/19 03:54:16;;;;;;;21.87;20.53;;;12.90;31.80;;;;;;5005832;28;20288;-57
2023/04/19 03:56:42;;;;;;;22.50;21.10;;;12.90;31.30;;;;;;5005421;28;20179;-58
2023/04/19 03:59:08;;;;;;;22.47;21.07;;;13.00;31.40;;;;;;5006803;28;20535;-58
2023/04/19 04:01:34;;;;;;;21.53;20.13;;;13.00;31.00;;;;;;5006220;28;20742;-57
2023/04/19 04:04:00;;;;;;;23.43;21.93;;;13.00;31.00;;;;;;5008433;28;20452;-57
2023/04/19 04:06:25;;;;;;;22.00;20.63;;;13.00;31.10;;;;;;5010163;28;20189;-58
2023/04/19 04:08:51;;;;;;;21.60;20.20;;;13.00;31.20;;;;;;5011043;28;20204;-58
2023/04/19 04:11:17;;;;;;;22.20;20.70;;;13.00;31.10;;;;;;5011318;28;20844;-58
2023/04/19 04:13:42;;;;;;;22.03;20.43;;;13.00;31.00;;;;;;5010716;28;20177;-58
2023/04/19 04:16:08;;;;;;;22.30;20.90;;;13.00;30.70;;;;;;5013203;28;20182;-58
2023/04/19 04:18:34;;;;;;;21.77;20.37;;;12.90;31.00;;;;;;5014890;28;20268;-58
2023/04/19 04:20:59;;;;;;;23.00;21.47;;;12.90;31.20;;;;;;5014830;28;20548;-62
2023/04/19 04:23:25;;;;;;;21.53;20.03;;;12.90;31.20;;;;;;5013691;28;20201;-63
2023/04/19 04:25:59;;;;;;;22.60;21.10;;;12.80;31.00;;;;;;5013829;28;20296;-62
2023/04/19 04:28:26;;;;;;;22.47;21.00;;;12.80;31.10;;;;;;5013959;28;20838;-62
2023/04/19 04:30:51;;;;;;;22.73;21.23;;;12.80;31.10;;;;;;5013833;28;20451;-62
2023/04/19 04:33:17;;;;;;;24.13;22.20;;;12.70;31.00;;;;;;5014023;28;20458;-62
2023/04/19 04:35:43;;;;;;;23.30;21.67;;;12.70;31.50;;;;;;5014421;28;20652;-61
2023/04/19 04:38:09;;;;;;;23.50;22.03;;;12.60;31.40;;;;;;5013529;28;20232;-62
2023/04/19 04:40:35;;;;;;;23.67;22.10;;;12.60;31.50;;;;;;5013176;28;20259;-62
2023/04/19 04:43:03;;;;;;;23.10;21.50;;;12.60;31.70;;;;;;5013647;28;20420;-63
2023/04/19 04:45:28;;;;;;;22.90;21.30;;;12.50;31.60;;;;;;5014286;28;20185;-61
2023/04/19 04:47:54;;;;;;;24.27;22.67;;;12.50;31.70;;;;;;5013587;28;20428;-58
2023/04/19 04:50:20;;;;;;;23.50;21.80;;;12.50;31.80;;;;;;5014177;28;20217;-60
2023/04/19 04:52:45;;;;;;;24.40;22.77;;;12.40;32.30;;;;;;5013602;28;20220;-57
2023/04/19 04:55:11;;;;;;;24.23;22.43;;;12.40;32.40;;;;;;5012811;28;20188;-58
2023/04/19 04:57:36;;;;;;;23.40;21.90;;;12.40;32.50;;;;;;5013514;28;20177;-58
2023/04/19 05:00:04;;;;;;;23.60;21.90;;;12.40;32.70;;;;;;5013896;28;20181;-58
2023/04/19 05:02:30;;;;;;;24.20;22.63;;;12.40;32.50;;;;;;5013848;28;20181;-57
2023/04/19 05:04:55;;;;;;;23.27;21.67;;;12.40;32.50;;;;;;5013833;28;20416;-58
2023/04/19 05:07:21;;;;;;;23.33;21.97;;;12.30;32.40;;;;;;5013309;28;20645;-57
2023/04/19 05:09:46;;;;;;;23.97;22.37;;;12.30;32.30;;;;;;5012247;28;20216;-58
2023/04/19 05:12:13;;;;;;;23.47;21.73;;;12.30;32.50;;;;;;5012544;28;20178;-57
2023/04/19 05:14:38;;;;;;;25.17;23.40;;;12.20;32.60;;;;;;5012379;28;20185;-61
2023/04/19 05:17:04;;;;;;;24.97;23.37;;;12.10;32.50;;;;;;5014856;28;20408;-63
2023/04/19 05:19:29;;;;;;;23.20;21.70;;;12.10;32.90;;;;;;5013611;28;20224;-62
2023/04/19 05:21:55;;;;;;;22.77;21.27;;;12.00;33.10;;;;;;5013048;28;20232;-62
2023/04/19 05:24:21;;;;;;;24.30;22.77;;;12.00;33.20;;;;;;5013687;28;20185;-63
2023/04/19 05:26:46;;;;;;;24.30;22.70;;;12.10;33.30;;;;;;5012871;28;20177;-62
2023/04/19 05:29:12;;;;;;;23.73;22.13;;;12.10;32.50;;;;;;4999134;28;20300;-62
2023/04/19 05:31:37;;;;;;;23.60;22.10;;;12.00;32.70;;;;;;4993973;28;20181;-63
2023/04/19 05:34:03;;;;;;;23.57;21.93;;;12.00;32.90;;;;;;4993237;28;20186;-63
2023/04/19 05:36:29;;;;;;;23.53;22.00;;;12.10;33.00;;;;;;5006205;28;20204;-62
2023/04/19 05:38:54;;;;;;;24.13;22.60;;;12.10;32.80;;;;;;5012495;28;20178;-62
2023/04/19 05:41:20;;;;;;;23.80;22.30;;;12.10;32.50;;;;;;5011056;28;20707;-61
2023/04/19 05:43:45;;;;;;;22.73;21.30;;;12.10;32.30;;;;;;5011528;28;20185;-62
2023/04/19 05:46:11;;;;;;;25.53;23.83;;;12.10;32.40;;;;;;5014341;28;20188;-63
2023/04/19 05:48:37;;;;;;;23.73;21.90;;;12.10;32.30;;;;;;5012842;28;20322;-62
2023/04/19 05:51:02;;;;;;;22.70;21.30;;;12.10;32.30;;;;;;5011538;28;20277;-62
2023/04/19 05:53:28;;;;;;;23.87;22.30;;;12.10;32.20;;;;;;4994389;28;20190;-62
2023/04/19 05:55:54;;;;;;;22.30;20.90;;;12.10;32.10;;;;;;4997529;28;20269;-63
2023/04/19 05:58:19;;;;;;;22.10;20.60;;;12.10;32.50;;;;;;5009877;28;20276;-63
2023/04/19 06:00:45;;;;;;;22.13;20.63;;;12.10;32.80;;;;;;5010550;28;20634;-55
2023/04/19 06:03:11;;;;;;;22.37;20.80;;;12.20;33.10;;;;;;5004843;28;20193;-57
2023/04/19 06:05:39;;;;;;;24.37;22.67;;;12.20;33.90;;;;;;5010847;28;20439;-57
2023/04/19 06:08:04;;;;;;;26.23;24.30;;;12.30;33.20;;;;;;5010247;28;20178;-58
2023/04/19 06:10:30;;;;;;;24.37;22.77;;;12.30;32.30;;;;;;5011021;28;20464;-57
2023/04/19 06:12:56;;;;;;;23.00;21.30;;;12.30;31.60;;;;;;5012125;28;20173;-57
2023/04/19 06:15:21;;;;;;;22.17;20.67;;;12.20;31.40;;;;;;5012567;28;20231;-58
2023/04/19 06:17:47;;;;;;;23.50;21.87;;;12.20;31.40;;;;;;5012351;28;20186;-56
2023/04/19 06:20:13;;;;;;;22.63;20.80;;;12.20;31.50;;;;;;5010902;28;20181;-55
2023/04/19 06:22:45;;;;;;;20.90;19.60;;;12.30;31.60;;;;;;5011920;28;20185;-56
2023/04/19 06:25:11;;;;;;;22.17;20.67;;;12.20;31.90;;;;;;5012385;28;20525;-56
2023/04/19 06:27:36;;;;;;;22.53;20.63;;;12.20;32.00;;;;;;5012346;28;20424;-57
2023/04/19 06:30:02;;;;;;;21.00;19.27;;;12.20;32.00;;;;;;5010912;28;20611;-55
2023/04/19 06:32:28;;;;;;;21.20;19.60;;;12.30;32.00;;;;;;5011617;28;20212;-56
2023/04/19 06:34:54;;;;;;;21.53;19.90;;;12.30;31.40;;;;;;5012221;28;20455;-55
2023/04/19 06:37:19;;;;;;;22.40;20.70;;;12.30;30.80;;;;;;5012270;28;20523;-57
2023/04/19 06:39:45;;;;;;;21.33;20.03;;;12.30;30.80;;;;;;5012108;28;20185;-56
2023/04/19 06:42:11;;;;;;;21.50;20.20;;;12.30;30.80;;;;;;5011339;28;20247;-55
2023/04/19 06:44:36;;;;;;;22.00;20.60;;;12.30;31.00;;;;;;5012089;28;20191;-57
2023/04/19 06:47:02;;;;;;;21.90;20.50;;;12.30;31.30;;;;;;5011922;28;20435;-58
2023/04/19 06:49:28;;;;;;;22.73;21.07;;;12.30;30.70;;;;;;5011587;28;20213;-56
2023/04/19 06:51:54;;;;;;;22.27;20.87;;;12.30;31.00;;;;;;5010024;28;20936;-56
2023/04/19 06:54:19;;;;;;;22.03;20.63;;;12.40;31.10;;;;;;5012654;28;20191;-58
2023/04/19 06:56:48;;;;;;;21.37;20.07;;;12.40;30.60;;;;;;5011240;28;20228;-57
2023/04/19 06:59:16;;;;;;;21.00;19.40;;;12.40;31.00;;;;;;5011204;28;20264;-57
2023/04/19 07:01:43;;;;;;;20.30;18.80;;;12.40;31.00;;;;;;5010883;28;20516;-57
2023/04/19 07:04:09;;;;;;;21.53;20.17;;;12.50;30.70;;;;;;5011911;28;20991;-58
2023/04/19 07:06:35;;;;;;;22.83;21.13;;;12.40;30.40;;;;;;5020184;28;20507;-58
2023/04/19 07:09:01;;;;;;;21.47;20.07;;;12.50;30.50;;;;;;5030902;28;20546;-57
2023/04/19 07:11:27;;;;;;;22.63;21.03;;;12.50;30.50;;;;;;5015587;28;20492;-58
2023/04/19 07:13:52;;;;;;;20.23;18.93;;;12.40;30.40;;;;;;5011011;28;20861;-57
2023/04/19 07:16:19;;;;;;;21.50;19.87;;;12.30;31.10;;;;;;5011259;28;20268;-57
2023/04/19 07:18:44;;;;;;;22.17;20.70;;;12.40;31.00;;;;;;5012217;28;20181;-58
2023/04/19 07:21:10;;;;;;;22.03;20.33;;;12.40;30.60;;;;;;5010492;28;20420;-58
2023/04/19 07:23:36;;;;;;;21.50;20.00;;;12.40;30.60;;;;;;5011260;28;20209;-58
2023/04/19 07:26:02;;;;;;;22.00;20.57;;;12.50;30.70;;;;;;5010885;28;20454;-57
2023/04/19 07:28:28;;;;;;;21.10;19.50;;;12.50;30.50;;;;;;5011069;28;20181;-57
2023/04/19 07:30:54;;;;;;;21.67;20.30;;;12.50;30.40;;;;;;5010867;28;20187;-57
2023/04/19 07:33:21;;;;;;;21.57;20.17;;;12.40;31.00;;;;;;5010354;28;20412;-58
2023/04/19 07:35:47;;;;;;;20.60;19.20;;;12.50;30.60;;;;;;5020331;28;20177;-57
2023/04/19 07:38:12;;;;;;;22.63;21.13;;;12.40;30.90;;;;;;5030062;28;20494;-58
2023/04/19 07:40:38;;;;;;;22.03;20.47;;;12.50;30.60;;;;;;5031824;28;20179;-58
2023/04/19 07:43:04;;;;;;;22.00;20.40;;;12.60;30.40;;;;;;5030360;28;20658;-58
2023/04/19 07:45:30;;;;;;;21.63;20.30;;;12.60;30.20;;;;;;5030233;28;20252;-57
2023/04/19 07:47:55;;;;;;;21.17;19.73;;;12.60;30.50;;;;;;5030487;28;20327;-56
2023/04/19 07:50:21;;;;;;;20.20;18.80;;;12.60;30.00;;;;;;5030531;28;20549;-57
2023/04/19 07:52:47;;;;;;;20.40;19.00;;;12.70;30.00;;;;;;5029867;28;20177;-57
2023/04/19 07:55:12;;;;;;;20.07;18.60;;;12.70;30.00;;;;;;5030397;28;20169;-57
2023/04/19 07:57:38;;;;;;;21.60;19.87;;;12.70;30.00;;;;;;5010741;28;20665;-56
2023/04/19 08:00:05;;;;;;;19.53;18.23;;;12.70;29.60;;;;;;5010692;28;20560;-56
2023/04/19 08:02:30;;;;;;;22.30;20.80;;;12.70;29.60;;;;;;5010032;28;20600;-63
2023/04/19 08:04:56;;;;;;;21.60;20.10;;;12.70;30.30;;;;;;5010459;28;20421;-56
2023/04/19 08:07:22;;;;;;;21.13;19.57;;;12.70;29.70;;;;;;5010802;28;20642;-57
2023/04/19 08:09:48;;;;;;;21.40;19.97;;;12.80;29.50;;;;;;5010536;28;20459;-58
2023/04/19 08:12:14;;;;;;;20.00;18.60;;;12.80;29.70;;;;;;5010062;28;20431;-57
2023/04/19 08:14:41;;;;;;;20.50;19.20;;;12.80;29.50;;;;;;5009633;28;20939;-57
2023/04/19 08:17:06;;;;;;;19.00;17.70;;;12.90;29.10;;;;;;5010455;28;20412;-57
2023/04/19 08:19:32;;;;;;;20.90;19.40;;;12.90;29.00;;;;;;5010647;28;20416;-56
2023/04/19 08:21:58;;;;;;;19.97;18.60;;;13.00;28.80;;;;;;5009980;28;20181;-58
2023/04/19 08:24:24;;;;;;;20.57;18.93;;;13.00;29.10;;;;;;5010489;28;20227;-57
2023/04/19 08:26:52;;;;;;;19.37;18.07;;;13.00;28.90;;;;;;5010374;28;20177;-56
2023/04/19 08:29:19;;;;;;;17.80;16.60;;;13.00;28.40;;;;;;5010429;28;20213;-56
2023/04/19 08:31:45;;;;;;;17.33;16.23;;;13.00;28.50;;;;;;5009989;28;20447;-56
2023/04/19 08:34:11;;;;;;;17.33;16.23;;;12.90;28.10;;;;;;5010404;28;20980;-58
2023/04/19 08:36:36;;;;;;;18.30;17.00;;;12.90;27.90;;;;;;5010455;28;20545;-57
2023/04/19 08:39:02;;;;;;;17.00;15.90;;;13.00;27.60;;;;;;4993995;28;20661;-57
2023/04/19 08:41:29;;;;;;;16.80;15.53;;;13.00;27.20;;;;;;5014878;28;20216;-56
2023/04/19 08:43:57;;;;;;;16.80;15.80;;;13.10;27.10;;;;;;5010196;28;20634;-57
2023/04/19 08:46:23;;;;;;;16.80;15.80;;;13.10;26.50;;;;;;5011981;28;20449;-56
2023/04/19 08:48:50;;;;;;;16.70;15.63;;;13.00;26.80;;;;;;5029886;28;20415;-57
2023/04/19 08:51:17;;;;;;;17.23;16.10;;;13.00;27.10;;;;;;5029622;28;20408;-57
2023/04/19 08:53:43;;;;;;;17.50;16.40;;;13.00;28.00;;;;;;5031156;28;20499;-57
2023/04/19 08:56:10;;;;;;;17.53;16.33;;;13.10;26.70;;;;;;5033659;28;20900;-57
2023/04/19 08:58:36;;;;;;;18.13;17.00;;;13.10;26.50;;;;;;5033493;28;20181;-57
2023/04/19 09:01:07;;;;;;;17.97;16.87;;;13.20;26.40;;;;;;5017035;28;20534;-57
2023/04/19 09:03:33;;;;;;;17.87;16.67;;;13.10;26.60;;;;;;5033324;28;20445;-63
2023/04/19 09:06:02;;;;;;;16.80;15.60;;;13.20;26.70;;;;;;5033453;28;20420;-64
2023/04/19 09:08:29;;;;;;;17.23;16.03;;;13.10;26.50;;;;;;5033294;28;20839;-62
2023/04/19 09:11:00;;;;;;;17.03;15.83;;;13.10;26.70;;;;;;5033206;28;20532;-64
2023/04/19 09:13:27;;;;;;;17.40;16.30;;;13.20;26.60;;;;;;5032915;28;20931;-63
2023/04/19 09:15:55;;;;;;;17.50;16.40;;;13.20;26.20;;;;;;5033185;28;20919;-63
2023/04/19 09:18:23;;;;;;;18.93;17.73;;;13.30;26.00;;;;;;5033262;28;20958;-63
2023/04/19 09:20:49;;;;;;;17.90;16.70;;;13.40;26.10;;;;;;5033003;28;20749;-64
2023/04/19 09:23:17;;;;;;;17.33;16.20;;;13.40;25.50;;;;;;5032824;28;20441;-63
2023/04/19 09:25:59;;;;;;;19.00;17.60;;;13.50;25.60;;;;;;5033299;28;20493;-64
2023/04/19 09:28:25;;;;;;;17.70;16.50;;;13.50;25.60;;;;;;5033139;28;20522;-64
2023/04/19 09:30:51;;;;;;;18.77;17.37;;;13.50;25.60;;;;;;5032748;28;21042;-63
2023/04/19 09:33:39;;;;;;;18.83;17.63;;;13.50;25.60;;;;;;5032620;28;20421;-63
2023/04/19 09:36:06;;;;;;;19.13;17.77;;;13.60;25.90;;;;;;5022572;28;20272;-63
2023/04/19 09:38:49;;;;;;;18.27;17.07;;;13.60;26.10;;;;;;5013009;28;20416;-63
2023/04/19 09:41:16;;;;;;;18.47;17.20;;;13.60;26.30;;;;;;5012775;28;20858;-64
2023/04/19 09:43:42;;;;;;;17.40;16.30;;;13.60;26.20;;;;;;5013221;28;20416;-63
2023/04/19 09:46:08;;;;;;;19.30;17.80;;;13.70;26.10;;;;;;5012707;28;20425;-63
2023/04/19 09:48:35;;;;;;;18.17;17.00;;;13.70;26.30;;;;;;5013859;28;20730;-63
2023/04/19 09:51:01;;;;;;;18.33;17.13;;;13.60;26.50;;;;;;5012676;28;20181;-63
2023/04/19 09:53:32;;;;;;;18.40;17.10;;;13.70;26.40;;;;;;5012441;28;20400;-63
2023/04/19 09:55:58;;;;;;;17.50;16.40;;;13.60;26.00;;;;;;5012644;28;20500;-63
2023/04/19 09:58:24;;;;;;;17.10;16.00;;;13.70;25.70;;;;;;5012533;28;21009;-62
2023/04/19 10:00:51;;;;;;;18.67;17.33;;;13.70;25.70;;;;;;5028419;28;20555;-63
2023/04/19 10:03:18;;;;;;;17.80;16.60;;;13.60;25.80;;;;;;5031802;28;20588;-57
2023/04/19 10:05:44;;;;;;;15.50;14.37;;;13.60;27.00;;;;;;5031583;28;20423;-57
2023/04/19 10:08:12;;;;;;;17.70;16.50;;;13.70;25.70;;;;;;5032303;28;20431;-57
2023/04/19 10:10:41;;;;;;;17.03;15.93;;;13.90;25.00;;;;;;5031956;28;20502;-57
2023/04/19 10:13:11;;;;;;;17.17;16.17;;;13.90;24.10;;;;;;5031394;28;20415;-57
2023/04/19 10:15:38;;;;;;;15.50;14.60;;;14.00;24.50;;;;;;5032260;28;20420;-57
2023/04/19 10:18:04;;;;;;;17.07;15.97;;;14.00;24.50;;;;;;5031810;28;20418;-57
2023/04/19 10:20:54;;;;;;;17.90;16.60;;;14.10;24.10;;;;;;5031937;28;20419;-57
2023/04/19 10:23:21;;;;;;;15.97;14.80;;;14.00;24.40;;;;;;5031578;28;20785;-57
2023/04/19 10:25:47;;;;;;;17.33;16.20;;;14.00;24.70;;;;;;5031937;28;20419;-58
2023/04/19 10:28:15;;;;;;;16.80;15.40;;;14.00;25.00;;;;;;5026717;28;20419;-57
2023/04/19 10:31:02;;;;;;;17.13;16.13;;;14.00;25.40;;;;;;5031576;28;20824;-56
2023/04/19 10:33:36;;;;;;;17.40;16.40;;;14.00;25.80;;;;;;5031553;28;20499;-57
2023/04/19 10:36:02;;;;;;;17.83;16.53;;;14.10;25.30;;;;;;5031616;28;20603;-57
2023/04/19 10:38:44;;;;;;;18.90;17.70;;;14.00;25.40;;;;;;5031262;28;20840;-58
2023/04/19 10:41:13;;;;;;;18.97;17.50;;;14.00;25.70;;;;;;5030972;28;20407;-58
2023/04/19 10:43:44;;;;;;;17.70;16.50;;;14.10;26.00;;;;;;5031517;28;20435;-57
2023/04/19 10:46:23;;;;;;;18.10;16.70;;;14.00;25.40;;;;;;5031353;28;20407;-57
2023/04/19 10:48:52;;;;;;;17.40;16.00;;;14.00;25.90;;;;;;5031002;28;20774;-58
2023/04/19 10:51:21;;;;;;;16.53;15.33;;;14.00;25.90;;;;;;5032093;28;20411;-56
2023/04/19 10:53:53;;;;;;;16.90;15.80;;;14.00;25.90;;;;;;5022546;28;20424;-57
2023/04/19 10:56:40;;;;;;;17.40;16.40;;;14.00;25.90;;;;;;5010734;28;20408;-57
2023/04/19 10:59:11;;;;;;;18.07;16.83;;;14.00;25.90;;;;;;5010712;28;20420;-58
2023/04/19 11:01:43;;;;;;;18.33;17.00;;;14.00;25.70;;;;;;5010891;28;20507;-57
2023/04/19 11:04:14;;;;;;;18.17;16.87;;;13.90;25.80;;;;;;5011287;28;20798;-57
2023/04/19 11:06:52;;;;;;;19.20;17.80;;;13.90;25.80;;;;;;5011358;28;20913;-57
2023/04/19 11:09:37;;;;;;;20.20;18.80;;;13.90;25.90;;;;;;5011301;28;20460;-57
2023/04/19 11:12:07;;;;;;;20.67;19.27;;;13.80;25.80;;;;;;5010690;28;20413;-57
2023/04/19 11:14:44;;;;;;;18.23;17.07;;;13.80;26.10;;;;;;5011367;28;20729;-58
2023/04/19 11:17:30;;;;;;;18.33;17.10;;;13.80;26.60;;;;;;5011390;28;20419;-63
2023/04/19 11:20:09;;;;;;;18.30;17.10;;;13.80;26.20;;;;;;5011126;28;20447;-63
2023/04/19 11:22:41;;;;;;;18.70;17.30;;;13.80;26.00;;;;;;5010622;28;20502;-65
2023/04/19 11:25:11;;;;;;;19.20;18.00;;;13.80;26.30;;;;;;5010507;28;20424;-63
2023/04/19 11:27:38;;;;;;;18.43;17.20;;;13.80;26.30;;;;;;5010854;28;20420;-63
2023/04/19 11:30:06;;;;;;;19.10;17.90;;;13.80;26.50;;;;;;5010747;28;20460;-63
2023/04/19 11:32:32;;;;;;;18.07;16.97;;;13.70;26.70;;;;;;5010400;28;20454;-63
2023/04/19 11:35:06;;;;;;;17.73;16.67;;;13.70;27.00;;;;;;5021530;28;20431;-58
2023/04/19 11:37:36;;;;;;;18.30;17.20;;;13.70;27.30;;;;;;5030461;28;20414;-57
2023/04/19 11:40:05;;;;;;;16.83;15.80;;;13.70;27.40;;;;;;5030781;28;20420;-57
2023/04/19 11:42:31;;;;;;;18.60;17.30;;;13.60;27.60;;;;;;5030333;28;20415;-57
2023/04/19 11:44:58;;;;;;;18.77;17.57;;;13.60;28.10;;;;;;5030549;28;20412;-58
2023/04/19 11:47:27;;;;;;;18.77;17.67;;;13.50;28.80;;;;;;5030835;28;20778;-57
2023/04/19 11:49:55;;;;;;;19.57;18.37;;;13.50;28.80;;;;;;5030556;28;20459;-57
2023/04/19 11:52:23;;;;;;;18.83;17.73;;;13.50;29.10;;;;;;5030119;28;20418;-57
2023/04/19 11:54:51;;;;;;;19.60;18.37;;;13.50;29.60;;;;;;5030637;28;20634;-57
2023/04/19 11:57:27;;;;;;;20.43;18.83;;;13.30;30.70;;;;;;5030512;28;20423;-57
2023/04/19 12:00:11;;;;;;;21.03;18.70;;;13.30;30.30;;;;;;5030607;28;20422;-57
2023/04/19 12:02:42;;;;;;;19.57;18.10;;;13.30;30.20;;;;;;5030092;28;20497;-57
2023/04/19 12:05:09;;;;;;;21.07;19.60;;;13.20;30.80;;;;;;5006884;28;20528;-57
2023/04/19 12:07:35;;;;;;;21.40;19.50;;;13.20;32.00;;;;;;5007591;28;20421;-58
2023/04/19 12:10:09;;;;;;;20.90;19.60;;;13.20;33.10;;;;;;5006837;28;21039;-57
2023/04/19 12:12:35;;;;;;;23.67;22.03;;;13.20;34.30;;;;;;5007110;28;20178;-57
2023/04/19 12:15:00;;;;;;;21.50;20.00;;;13.10;35.80;;;;;;5014772;28;20753;-58
2023/04/19 12:17:26;;;;;;;23.00;21.40;;;13.10;36.40;;;;;;5010475;28;20234;-58
2023/04/19 12:19:52;;;;;;;22.33;20.83;;;13.10;36.90;;;;;;5010446;28;20204;-57
2023/04/19 12:22:19;;;;;;;23.67;22.07;;;13.00;37.30;;;;;;4993715;28;20184;-57
2023/04/19 12:24:45;;;;;;;23.43;22.03;;;13.00;37.20;;;;;;5009925;28;20542;-63
2023/04/19 12:27:11;;;;;;;22.23;20.73;;;12.90;37.30;;;;;;5010173;28;20416;-57